PWSweather.com
Personal Weather Stations
Station Observations
ANTHEMNP
Anthem North Parkside, Anthem, AZ 85086

Anthem North ParksideAnthem, AZ 85086

Lat: 33.876464, Lon: -112.13861199999997

Elevation: 1930

Station Type: Davis Vantage Vue with Pro 2 console

http://www.azjerry.com/ANPW/wxindex.php

High Low Average
Temperature 103.3°F39.6°C 77.8°F25.4°C 93.3°F34.1°C
Dew Point 66.0°F18.9°C 55.0°F12.8°C 60.7°F15.9°C
Winds 6.1 mph 9.8 kmh Calm Calm 2.0 mph S3.2 kmh S
Wind Gusts 15.0 mph24.1 kmh -- 7.0 mph11.3 kmh
Humidity 64% 20% 35%
Pressure 29.84 in1010.5 mb 29.84 in1010.5 mb -
Precipitation 0.00 in0.0 mm - -
Hour Temp Dew Point Humidity Winds Wind Gusts Pressure Precip Precip Rate Daily Precip Total
12:00 AM 91.0°F32.8°C 61.0°F16.1°C 37% 0.4 mph SW0.6 kmh SW 2.0 mph3.2 kmh 29.84 in1010.5 mb 0.00 in0.0 mm 0.00 in0.0 mm 0.00 in0.0 mm
12:10 AM 91.0°F32.8°C 61.0°F16.1°C 37% 0.8 mph SW1.3 kmh SW 3.0 mph4.8 kmh 29.84 in1010.5 mb 0.00 in0.0 mm 0.00 in0.0 mm 0.00 in0.0 mm
12:20 AM 91.0°F32.8°C 61.0°F16.1°C 37% 0.8 mph SW1.3 kmh SW 4.0 mph6.4 kmh 29.84 in1010.5 mb 0.00 in0.0 mm 0.00 in0.0 mm 0.00 in0.0 mm
12:30 AM 91.1°F32.8°C 61.0°F16.1°C 37% 1.3 mph SW2.1 kmh SW 4.0 mph6.4 kmh 29.84 in1010.5 mb 0.00 in0.0 mm 0.00 in0.0 mm 0.00 in0.0 mm
12:40 AM 90.9°F32.7°C 61.0°F16.1°C 37% 0.6 mph SSW1.0 kmh SSW 3.0 mph4.8 kmh 29.84 in1010.5 mb 0.00 in0.0 mm 0.00 in0.0 mm 0.00 in0.0 mm
12:50 AM 90.3°F32.4°C 61.0°F16.1°C 38% 0.2 mph NE0.3 kmh NE 2.0 mph3.2 kmh 29.84 in1010.5 mb 0.00 in0.0 mm 0.00 in0.0 mm 0.00 in0.0 mm
01:00 AM 89.9°F32.2°C 61.0°F16.1°C 38% 0.2 mph SE0.3 kmh SE 1.0 mph1.6 kmh 29.84 in1010.5 mb 0.00 in0.0 mm 0.00 in0.0 mm 0.00 in0.0 mm
01:10 AM 89.8°F32.1°C 62.0°F16.7°C 39% 0.1 mph SSW0.2 kmh SSW 2.0 mph3.2 kmh 29.84 in1010.5 mb 0.00 in0.0 mm 0.00 in0.0 mm 0.00 in0.0 mm
01:20 AM 89.4°F31.9°C 61.0°F16.1°C 39% Calm Calm -- 29.84 in1010.5 mb 0.00 in0.0 mm 0.00 in0.0 mm 0.00 in0.0 mm
01:30 AM 89.5°F31.9°C 61.0°F16.1°C 39% 0.3 mph SSW0.5 kmh SSW 1.0 mph1.6 kmh 29.84 in1010.5 mb 0.00 in0.0 mm 0.00 in0.0 mm 0.00 in0.0 mm
01:40 AM 89.8°F32.1°C 61.0°F16.1°C 38% 0.4 mph SE0.6 kmh SE 2.0 mph3.2 kmh 29.84 in1010.5 mb 0.00 in0.0 mm 0.00 in0.0 mm 0.00 in0.0 mm
01:50 AM 89.9°F32.2°C 61.0°F16.1°C 38% 0.8 mph SSW1.3 kmh SSW 2.0 mph3.2 kmh 29.84 in1010.5 mb 0.00 in0.0 mm 0.00 in0.0 mm 0.00 in0.0 mm
02:00 AM 90.0°F32.2°C 61.0°F16.1°C 38% 0.8 mph SW1.3 kmh SW 2.0 mph3.2 kmh 29.84 in1010.5 mb 0.00 in0.0 mm 0.00 in0.0 mm 0.00 in0.0 mm
02:10 AM 89.9°F32.2°C 60.0°F15.6°C 37% 0.3 mph S0.5 kmh S 3.0 mph4.8 kmh 29.84 in1010.5 mb 0.00 in0.0 mm 0.00 in0.0 mm 0.00 in0.0 mm
02:20 AM 89.8°F32.1°C 61.0°F16.1°C 38% 1.1 mph SSE1.8 kmh SSE 2.0 mph3.2 kmh 29.84 in1010.5 mb 0.00 in0.0 mm 0.00 in0.0 mm 0.00 in0.0 mm
02:30 AM 89.2°F31.8°C 61.0°F16.1°C 39% 0.8 mph SE1.3 kmh SE 2.0 mph3.2 kmh 29.84 in1010.5 mb 0.00 in0.0 mm 0.00 in0.0 mm 0.00 in0.0 mm
02:40 AM 88.9°F31.6°C 61.0°F16.1°C 39% 0.2 mph SE0.3 kmh SE 1.0 mph1.6 kmh 29.84 in1010.5 mb 0.00 in0.0 mm 0.00 in0.0 mm 0.00 in0.0 mm
02:50 AM 88.8°F31.6°C 61.0°F16.1°C 39% Calm Calm 1.0 mph1.6 kmh 29.84 in1010.5 mb 0.00 in0.0 mm 0.00 in0.0 mm 0.00 in0.0 mm
03:00 AM 88.8°F31.6°C 61.0°F16.1°C 39% 0.8 mph SE1.3 kmh SE 2.0 mph3.2 kmh 29.84 in1010.5 mb 0.00 in0.0 mm 0.00 in0.0 mm 0.00 in0.0 mm
03:10 AM 88.8°F31.6°C 61.0°F16.1°C 39% 0.6 mph SE1.0 kmh SE 2.0 mph3.2 kmh 29.84 in1010.5 mb 0.00 in0.0 mm 0.00 in0.0 mm 0.00 in0.0 mm
03:20 AM 88.6°F31.4°C 61.0°F16.1°C 39% 0.9 mph SE1.4 kmh SE 3.0 mph4.8 kmh 29.84 in1010.5 mb 0.00 in0.0 mm 0.00 in0.0 mm 0.00 in0.0 mm
03:30 AM 88.6°F31.4°C 61.0°F16.1°C 39% 0.5 mph SE0.8 kmh SE 2.0 mph3.2 kmh 29.84 in1010.5 mb 0.00 in0.0 mm 0.00 in0.0 mm 0.00 in0.0 mm
03:40 AM 88.2°F31.2°C 61.0°F16.1°C 40% 0.2 mph SE0.3 kmh SE 1.0 mph1.6 kmh 29.84 in1010.5 mb 0.00 in0.0 mm 0.00 in0.0 mm 0.00 in0.0 mm
03:50 AM 88.2°F31.2°C 61.0°F16.1°C 40% 0.4 mph SE0.6 kmh SE 1.0 mph1.6 kmh 29.84 in1010.5 mb 0.00 in0.0 mm 0.00 in0.0 mm 0.00 in0.0 mm
04:00 AM 87.9°F31.1°C 61.0°F16.1°C 41% Calm Calm 1.0 mph1.6 kmh 29.84 in1010.5 mb 0.00 in0.0 mm 0.00 in0.0 mm 0.00 in0.0 mm
04:10 AM 87.8°F31.0°C 61.0°F16.1°C 40% 1.4 mph S2.3 kmh S 3.0 mph4.8 kmh 29.84 in1010.5 mb 0.00 in0.0 mm 0.00 in0.0 mm 0.00 in0.0 mm
04:20 AM 87.7°F30.9°C 60.0°F15.6°C 39% 0.8 mph SSW1.3 kmh SSW 4.0 mph6.4 kmh 29.84 in1010.5 mb 0.00 in0.0 mm 0.00 in0.0 mm 0.00 in0.0 mm
04:30 AM 87.7°F30.9°C 61.0°F16.1°C 40% 0.8 mph SW1.3 kmh SW 2.0 mph3.2 kmh 29.84 in1010.5 mb 0.00 in0.0 mm 0.00 in0.0 mm 0.00 in0.0 mm
04:40 AM 87.8°F31.0°C 61.0°F16.1°C 40% 0.7 mph S1.1 kmh S 3.0 mph4.8 kmh 29.84 in1010.5 mb 0.00 in0.0 mm 0.00 in0.0 mm 0.00 in0.0 mm
04:50 AM 88.3°F31.3°C 62.0°F16.7°C 41% 1.5 mph WSW2.4 kmh WSW 5.0 mph8.0 kmh 29.84 in1010.5 mb 0.00 in0.0 mm 0.00 in0.0 mm 0.00 in0.0 mm
05:00 AM 88.4°F31.3°C 62.0°F16.7°C 42% 1.9 mph SSE3.1 kmh SSE 6.0 mph9.7 kmh 29.84 in1010.5 mb 0.00 in0.0 mm 0.00 in0.0 mm 0.00 in0.0 mm
05:10 AM 88.3°F31.3°C 62.0°F16.7°C 42% 2.0 mph S3.2 kmh S 5.0 mph8.0 kmh 29.84 in1010.5 mb 0.00 in0.0 mm 0.00 in0.0 mm 0.00 in0.0 mm
05:20 AM 88.1°F31.2°C 62.0°F16.7°C 42% 1.1 mph SSE1.8 kmh SSE 4.0 mph6.4 kmh 29.84 in1010.5 mb 0.00 in0.0 mm 0.00 in0.0 mm 0.00 in0.0 mm
05:30 AM 88.0°F31.1°C 62.0°F16.7°C 42% 2.0 mph SSW3.2 kmh SSW 4.0 mph6.4 kmh 29.84 in1010.5 mb 0.00 in0.0 mm 0.00 in0.0 mm 0.00 in0.0 mm
05:40 AM 87.9°F31.1°C 62.0°F16.7°C 42% 2.6 mph SSW4.2 kmh SSW 6.0 mph9.7 kmh 29.84 in1010.5 mb 0.00 in0.0 mm 0.00 in0.0 mm 0.00 in0.0 mm
05:50 AM 87.8°F31.0°C 63.0°F17.2°C 43% 2.0 mph SW3.2 kmh SW 4.0 mph6.4 kmh 29.84 in1010.5 mb 0.00 in0.0 mm 0.00 in0.0 mm 0.00 in0.0 mm
06:00 AM 87.7°F30.9°C 63.0°F17.2°C 43% 1.8 mph SSW2.9 kmh SSW 6.0 mph9.7 kmh 29.84 in1010.5 mb 0.00 in0.0 mm 0.00 in0.0 mm 0.00 in0.0 mm
06:10 AM 87.6°F30.9°C 62.0°F16.7°C 43% 1.9 mph SW3.1 kmh SW 4.0 mph6.4 kmh 29.84 in1010.5 mb 0.00 in0.0 mm 0.00 in0.0 mm 0.00 in0.0 mm
06:20 AM 87.5°F30.8°C 62.0°F16.7°C 43% 1.6 mph SW2.6 kmh SW 5.0 mph8.0 kmh 29.84 in1010.5 mb 0.00 in0.0 mm 0.00 in0.0 mm 0.00 in0.0 mm
06:30 AM 87.3°F30.7°C 63.0°F17.2°C 44% 2.5 mph SSW4.0 kmh SSW 7.0 mph11.3 kmh 29.84 in1010.5 mb 0.00 in0.0 mm 0.00 in0.0 mm 0.00 in0.0 mm
06:40 AM 87.0°F30.6°C 63.0°F17.2°C 45% 2.0 mph SSW3.2 kmh SSW 6.0 mph9.7 kmh 29.84 in1010.5 mb 0.00 in0.0 mm 0.00 in0.0 mm 0.00 in0.0 mm
06:50 AM 86.8°F30.4°C 63.0°F17.2°C 45% 1.5 mph SW2.4 kmh SW 5.0 mph8.0 kmh 29.84 in1010.5 mb 0.00 in0.0 mm 0.00 in0.0 mm 0.00 in0.0 mm
07:00 AM 86.7°F30.4°C 62.0°F16.7°C 44% 2.2 mph S3.5 kmh S 8.0 mph12.9 kmh 29.84 in1010.5 mb 0.00 in0.0 mm 0.00 in0.0 mm 0.00 in0.0 mm
07:10 AM 87.0°F30.6°C 63.0°F17.2°C 44% 3.5 mph WSW5.6 kmh WSW 8.0 mph12.9 kmh 29.84 in1010.5 mb 0.00 in0.0 mm 0.00 in0.0 mm 0.00 in0.0 mm
07:20 AM 88.1°F31.2°C 62.0°F16.7°C 42% 0.9 mph SW1.4 kmh SW 3.0 mph4.8 kmh 29.84 in1010.5 mb 0.00 in0.0 mm 0.00 in0.0 mm 0.00 in0.0 mm
07:30 AM 89.4°F31.9°C 61.0°F16.1°C 39% 0.7 mph N1.1 kmh N 4.0 mph6.4 kmh 29.84 in1010.5 mb 0.00 in0.0 mm 0.00 in0.0 mm 0.00 in0.0 mm
07:40 AM 90.5°F32.5°C 61.0°F16.1°C 37% 0.7 mph WSW1.1 kmh WSW 5.0 mph8.0 kmh 29.84 in1010.5 mb 0.00 in0.0 mm 0.00 in0.0 mm 0.00 in0.0 mm
07:50 AM 90.5°F32.5°C 60.0°F15.6°C 36% 1.9 mph S3.1 kmh S 7.0 mph11.3 kmh 29.84 in1010.5 mb 0.00 in0.0 mm 0.00 in0.0 mm 0.00 in0.0 mm
08:00 AM 91.1°F32.8°C 61.0°F16.1°C 36% 2.1 mph SSW3.4 kmh SSW 7.0 mph11.3 kmh 29.84 in1010.5 mb 0.00 in0.0 mm 0.00 in0.0 mm 0.00 in0.0 mm
08:10 AM 91.0°F32.8°C 61.0°F16.1°C 36% 3.7 mph SW6.0 kmh SW 10.0 mph16.1 kmh 29.84 in1010.5 mb 0.00 in0.0 mm 0.00 in0.0 mm 0.00 in0.0 mm
08:20 AM 91.8°F33.2°C 61.0°F16.1°C 35% 2.8 mph SSE4.5 kmh SSE 9.0 mph14.5 kmh 29.84 in1010.5 mb 0.00 in0.0 mm 0.00 in0.0 mm 0.00 in0.0 mm
08:30 AM 92.1°F33.4°C 61.0°F16.1°C 35% 3.3 mph SW5.3 kmh SW 9.0 mph14.5 kmh 29.84 in1010.5 mb 0.00 in0.0 mm 0.00 in0.0 mm 0.00 in0.0 mm
08:40 AM 92.4°F33.6°C 60.0°F15.6°C 34% 2.2 mph SW3.5 kmh SW 11.0 mph17.7 kmh 29.84 in1010.5 mb 0.00 in0.0 mm 0.00 in0.0 mm 0.00 in0.0 mm
08:50 AM 93.2°F34.0°C 61.0°F16.1°C 34% 2.9 mph SW4.7 kmh SW 8.0 mph12.9 kmh 29.84 in1010.5 mb 0.00 in0.0 mm 0.00 in0.0 mm 0.00 in0.0 mm
09:00 AM 93.0°F33.9°C 61.0°F16.1°C 34% 3.0 mph SE4.8 kmh SE 8.0 mph12.9 kmh 29.84 in1010.5 mb 0.00 in0.0 mm 0.00 in0.0 mm 0.00 in0.0 mm
09:10 AM 93.5°F34.2°C 61.0°F16.1°C 34% 1.9 mph SW3.1 kmh SW 8.0 mph12.9 kmh 29.84 in1010.5 mb 0.00 in0.0 mm 0.00 in0.0 mm 0.00 in0.0 mm
09:20 AM 94.3°F34.6°C 61.0°F16.1°C 33% 1.8 mph SSW2.9 kmh SSW 7.0 mph11.3 kmh 29.84 in1010.5 mb 0.00 in0.0 mm 0.00 in0.0 mm 0.00 in0.0 mm
09:30 AM 93.4°F34.1°C 60.0°F15.6°C 33% 3.2 mph SSW5.1 kmh SSW 9.0 mph14.5 kmh 29.84 in1010.5 mb 0.00 in0.0 mm 0.00 in0.0 mm 0.00 in0.0 mm
09:40 AM 93.2°F34.0°C 61.0°F16.1°C 34% 3.4 mph SSW5.5 kmh SSW 10.0 mph16.1 kmh 29.84 in1010.5 mb 0.00 in0.0 mm 0.00 in0.0 mm 0.00 in0.0 mm
09:50 AM 93.5°F34.2°C 61.0°F16.1°C 34% 2.8 mph WSW4.5 kmh WSW 9.0 mph14.5 kmh 29.84 in1010.5 mb 0.00 in0.0 mm 0.00 in0.0 mm 0.00 in0.0 mm
10:00 AM 93.3°F34.1°C 61.0°F16.1°C 34% 5.2 mph SW8.4 kmh SW 9.0 mph14.5 kmh 29.84 in1010.5 mb 0.00 in0.0 mm 0.00 in0.0 mm 0.00 in0.0 mm
10:10 AM 93.5°F34.2°C 61.0°F16.1°C 34% 3.3 mph SSW5.3 kmh SSW 9.0 mph14.5 kmh 29.84 in1010.5 mb 0.00 in0.0 mm 0.00 in0.0 mm 0.00 in0.0 mm
10:20 AM 94.2°F34.6°C 62.0°F16.7°C 34% 3.5 mph SSW5.6 kmh SSW 7.0 mph11.3 kmh 29.84 in1010.5 mb 0.00 in0.0 mm 0.00 in0.0 mm 0.00 in0.0 mm
10:30 AM 94.1°F34.5°C 62.0°F16.7°C 34% 2.8 mph S4.5 kmh S 7.0 mph11.3 kmh 29.84 in1010.5 mb 0.00 in0.0 mm 0.00 in0.0 mm 0.00 in0.0 mm
10:40 AM 95.3°F35.2°C 62.0°F16.7°C 33% 4.1 mph SSE6.6 kmh SSE 10.0 mph16.1 kmh 29.84 in1010.5 mb 0.00 in0.0 mm 0.00 in0.0 mm 0.00 in0.0 mm
10:50 AM 95.2°F35.1°C 62.0°F16.7°C 33% 3.0 mph SSW4.8 kmh SSW 9.0 mph14.5 kmh 29.84 in1010.5 mb 0.00 in0.0 mm 0.00 in0.0 mm 0.00 in0.0 mm
11:00 AM 94.9°F34.9°C 62.0°F16.7°C 33% 3.7 mph SW6.0 kmh SW 10.0 mph16.1 kmh 29.84 in1010.5 mb 0.00 in0.0 mm 0.00 in0.0 mm 0.00 in0.0 mm
11:10 AM 94.9°F34.9°C 62.0°F16.7°C 33% 4.1 mph SSW6.6 kmh SSW 10.0 mph16.1 kmh 29.84 in1010.5 mb 0.00 in0.0 mm 0.00 in0.0 mm 0.00 in0.0 mm
11:20 AM 94.7°F34.8°C 61.0°F16.1°C 33% 3.1 mph SSW5.0 kmh SSW 11.0 mph17.7 kmh 29.84 in1010.5 mb 0.00 in0.0 mm 0.00 in0.0 mm 0.00 in0.0 mm
11:30 AM 95.3°F35.2°C 61.0°F16.1°C 32% 3.3 mph S5.3 kmh S 10.0 mph16.1 kmh 29.84 in1010.5 mb 0.00 in0.0 mm 0.00 in0.0 mm 0.00 in0.0 mm
11:40 AM 95.9°F35.5°C 62.0°F16.7°C 32% 5.4 mph S8.7 kmh S 13.0 mph20.9 kmh 29.84 in1010.5 mb 0.00 in0.0 mm 0.00 in0.0 mm 0.00 in0.0 mm
11:50 AM 97.0°F36.1°C 61.0°F16.1°C 30% 3.9 mph SW6.3 kmh SW 8.0 mph12.9 kmh 29.84 in1010.5 mb 0.00 in0.0 mm 0.00 in0.0 mm 0.00 in0.0 mm
12:00 PM 97.8°F36.6°C 62.0°F16.7°C 30% 4.3 mph SW6.9 kmh SW 8.0 mph12.9 kmh 29.84 in1010.5 mb 0.00 in0.0 mm 0.00 in0.0 mm 0.00 in0.0 mm
12:10 PM 98.0°F36.7°C 62.0°F16.7°C 30% 3.3 mph S5.3 kmh S 9.0 mph14.5 kmh 29.84 in1010.5 mb 0.00 in0.0 mm 0.00 in0.0 mm 0.00 in0.0 mm
12:20 PM 97.3°F36.3°C 61.0°F16.1°C 30% 2.1 mph S3.4 kmh S 9.0 mph14.5 kmh 29.84 in1010.5 mb 0.00 in0.0 mm 0.00 in0.0 mm 0.00 in0.0 mm
12:30 PM 96.6°F35.9°C 60.0°F15.6°C 30% 2.8 mph S4.5 kmh S 9.0 mph14.5 kmh 29.84 in1010.5 mb 0.00 in0.0 mm 0.00 in0.0 mm 0.00 in0.0 mm
12:40 PM 96.5°F35.8°C 61.0°F16.1°C 31% 3.4 mph SSW5.5 kmh SSW 8.0 mph12.9 kmh 29.84 in1010.5 mb 0.00 in0.0 mm 0.00 in0.0 mm 0.00 in0.0 mm
12:50 PM 97.2°F36.2°C 61.0°F16.1°C 30% 2.3 mph SSW3.7 kmh SSW 9.0 mph14.5 kmh 29.84 in1010.5 mb 0.00 in0.0 mm 0.00 in0.0 mm 0.00 in0.0 mm
01:00 PM 97.8°F36.6°C 61.0°F16.1°C 29% 3.8 mph SE6.1 kmh SE 10.0 mph16.1 kmh 29.84 in1010.5 mb 0.00 in0.0 mm 0.00 in0.0 mm 0.00 in0.0 mm
01:10 PM 99.2°F37.3°C 61.0°F16.1°C 28% 4.0 mph SE6.4 kmh SE 9.0 mph14.5 kmh 29.84 in1010.5 mb 0.00 in0.0 mm 0.00 in0.0 mm 0.00 in0.0 mm
01:20 PM 99.7°F37.6°C 61.0°F16.1°C 28% 4.5 mph SE7.2 kmh SE 11.0 mph17.7 kmh 29.84 in1010.5 mb 0.00 in0.0 mm 0.00 in0.0 mm 0.00 in0.0 mm
01:30 PM 100.5°F38.1°C 62.0°F16.7°C 28% 5.5 mph SW8.9 kmh SW 13.0 mph20.9 kmh 29.84 in1010.5 mb 0.00 in0.0 mm 0.00 in0.0 mm 0.00 in0.0 mm
01:40 PM 100.0°F37.8°C 60.0°F15.6°C 27% 4.1 mph SSE6.6 kmh SSE 12.0 mph19.3 kmh 29.84 in1010.5 mb 0.00 in0.0 mm 0.00 in0.0 mm 0.00 in0.0 mm
01:50 PM 99.8°F37.7°C 61.0°F16.1°C 28% 4.4 mph SW7.1 kmh SW 11.0 mph17.7 kmh 29.84 in1010.5 mb 0.00 in0.0 mm 0.00 in0.0 mm 0.00 in0.0 mm
02:00 PM 99.8°F37.7°C 61.0°F16.1°C 28% 3.5 mph SE5.6 kmh SE 13.0 mph20.9 kmh 29.84 in1010.5 mb 0.00 in0.0 mm 0.00 in0.0 mm 0.00 in0.0 mm
02:10 PM 100.2°F37.9°C 63.0°F17.2°C 29% 3.7 mph SE6.0 kmh SE 11.0 mph17.7 kmh 29.84 in1010.5 mb 0.00 in0.0 mm 0.00 in0.0 mm 0.00 in0.0 mm
02:20 PM 100.1°F37.8°C 62.0°F16.7°C 28% 5.6 mph SSW9.0 kmh SSW 11.0 mph17.7 kmh 29.84 in1010.5 mb 0.00 in0.0 mm 0.00 in0.0 mm 0.00 in0.0 mm
02:30 PM 99.7°F37.6°C 62.0°F16.7°C 29% 5.1 mph WSW8.2 kmh WSW 13.0 mph20.9 kmh 29.84 in1010.5 mb 0.00 in0.0 mm 0.00 in0.0 mm 0.00 in0.0 mm
02:40 PM 99.3°F37.4°C 61.0°F16.1°C 28% 3.3 mph S5.3 kmh S 9.0 mph14.5 kmh 29.84 in1010.5 mb 0.00 in0.0 mm 0.00 in0.0 mm 0.00 in0.0 mm
02:50 PM 99.9°F37.7°C 61.0°F16.1°C 28% 3.5 mph SE5.6 kmh SE 10.0 mph16.1 kmh 29.84 in1010.5 mb 0.00 in0.0 mm 0.00 in0.0 mm 0.00 in0.0 mm
03:00 PM 100.2°F37.9°C 62.0°F16.7°C 28% 3.0 mph SW4.8 kmh SW 9.0 mph14.5 kmh 29.84 in1010.5 mb 0.00 in0.0 mm 0.00 in0.0 mm 0.00 in0.0 mm
03:10 PM 100.0°F37.8°C 61.0°F16.1°C 28% 3.3 mph SW5.3 kmh SW 11.0 mph17.7 kmh 29.84 in1010.5 mb 0.00 in0.0 mm 0.00 in0.0 mm 0.00 in0.0 mm
03:20 PM 100.7°F38.2°C 61.0°F16.1°C 27% 3.9 mph SW6.3 kmh SW 14.0 mph22.5 kmh 29.84 in1010.5 mb 0.00 in0.0 mm 0.00 in0.0 mm 0.00 in0.0 mm
03:30 PM 100.7°F38.2°C 61.0°F16.1°C 27% 3.1 mph SSW5.0 kmh SSW 12.0 mph19.3 kmh 29.84 in1010.5 mb 0.00 in0.0 mm 0.00 in0.0 mm 0.00 in0.0 mm
03:40 PM 100.7°F38.2°C 60.0°F15.6°C 26% 6.1 mph SSE9.8 kmh SSE 12.0 mph19.3 kmh 29.84 in1010.5 mb 0.00 in0.0 mm 0.00 in0.0 mm 0.00 in0.0 mm
03:50 PM 101.8°F38.8°C 60.0°F15.6°C 25% 2.1 mph SW3.4 kmh SW 8.0 mph12.9 kmh 29.84 in1010.5 mb 0.00 in0.0 mm 0.00 in0.0 mm 0.00 in0.0 mm
04:00 PM 101.3°F38.5°C 58.0°F14.4°C 24% 1.6 mph NW2.6 kmh NW 5.0 mph8.0 kmh 29.84 in1010.5 mb 0.00 in0.0 mm 0.00 in0.0 mm 0.00 in0.0 mm
04:10 PM 100.9°F38.3°C 59.0°F15.0°C 25% 1.2 mph SE1.9 kmh SE 4.0 mph6.4 kmh 29.84 in1010.5 mb 0.00 in0.0 mm 0.00 in0.0 mm 0.00 in0.0 mm
04:20 PM 100.7°F38.2°C 59.0°F15.0°C 25% 1.1 mph NE1.8 kmh NE 4.0 mph6.4 kmh 29.84 in1010.5 mb 0.00 in0.0 mm 0.00 in0.0 mm 0.00 in0.0 mm
04:30 PM 100.9°F38.3°C 58.0°F14.4°C 24% 0.6 mph E1.0 kmh E 3.0 mph4.8 kmh 29.84 in1010.5 mb 0.00 in0.0 mm 0.00 in0.0 mm 0.00 in0.0 mm
04:40 PM 100.3°F37.9°C 57.0°F13.9°C 24% 1.1 mph NW1.8 kmh NW 4.0 mph6.4 kmh 29.84 in1010.5 mb 0.00 in0.0 mm 0.00 in0.0 mm 0.00 in0.0 mm
04:50 PM 101.1°F38.4°C 58.0°F14.4°C 24% 0.6 mph NW1.0 kmh NW 5.0 mph8.0 kmh 29.84 in1010.5 mb 0.00 in0.0 mm 0.00 in0.0 mm 0.00 in0.0 mm
05:00 PM 102.0°F38.9°C 58.0°F14.4°C 23% 0.5 mph SSW0.8 kmh SSW 4.0 mph6.4 kmh 29.84 in1010.5 mb 0.00 in0.0 mm 0.00 in0.0 mm 0.00 in0.0 mm
05:10 PM 102.0°F38.9°C 58.0°F14.4°C 23% 0.5 mph NE0.8 kmh NE 5.0 mph8.0 kmh 29.84 in1010.5 mb 0.00 in0.0 mm 0.00 in0.0 mm 0.00 in0.0 mm
05:20 PM 102.4°F39.1°C 57.0°F13.9°C 22% 1.8 mph SW2.9 kmh SW 10.0 mph16.1 kmh 29.84 in1010.5 mb 0.00 in0.0 mm 0.00 in0.0 mm 0.00 in0.0 mm
05:30 PM 103.3°F39.6°C 58.0°F14.4°C 22% 1.7 mph NNW2.7 kmh NNW 5.0 mph8.0 kmh 29.84 in1010.5 mb 0.00 in0.0 mm 0.00 in0.0 mm 0.00 in0.0 mm
05:40 PM 103.1°F39.5°C 56.0°F13.3°C 21% 3.8 mph S6.1 kmh S 10.0 mph16.1 kmh 29.84 in1010.5 mb 0.00 in0.0 mm 0.00 in0.0 mm 0.00 in0.0 mm
05:50 PM 102.6°F39.2°C 56.0°F13.3°C 21% 4.6 mph SW7.4 kmh SW 11.0 mph17.7 kmh 29.84 in1010.5 mb 0.00 in0.0 mm 0.00 in0.0 mm 0.00 in0.0 mm
06:00 PM 103.0°F39.4°C 56.0°F13.3°C 21% 2.7 mph NW4.3 kmh NW 9.0 mph14.5 kmh 29.84 in1010.5 mb 0.00 in0.0 mm 0.00 in0.0 mm 0.00 in0.0 mm
06:10 PM 102.9°F39.4°C 55.0°F12.8°C 20% 3.6 mph SW5.8 kmh SW 10.0 mph16.1 kmh 29.84 in1010.5 mb 0.00 in0.0 mm 0.00 in0.0 mm 0.00 in0.0 mm
06:20 PM 102.2°F39.0°C 55.0°F12.8°C 21% 4.9 mph SSW7.9 kmh SSW 13.0 mph20.9 kmh 29.84 in1010.5 mb 0.00 in0.0 mm 0.00 in0.0 mm 0.00 in0.0 mm
06:30 PM 101.9°F38.8°C 55.0°F12.8°C 21% 4.1 mph SW6.6 kmh SW 10.0 mph16.1 kmh 29.84 in1010.5 mb 0.00 in0.0 mm 0.00 in0.0 mm 0.00 in0.0 mm
06:40 PM 101.5°F38.6°C 56.0°F13.3°C 22% 2.8 mph SW4.5 kmh SW 10.0 mph16.1 kmh 29.84 in1010.5 mb 0.00 in0.0 mm 0.00 in0.0 mm 0.00 in0.0 mm
06:50 PM 101.1°F38.4°C 58.0°F14.4°C 24% 4.6 mph SSW7.4 kmh SSW 10.0 mph16.1 kmh 29.84 in1010.5 mb 0.00 in0.0 mm 0.00 in0.0 mm 0.00 in0.0 mm
07:00 PM 100.7°F38.2°C 58.0°F14.4°C 24% 4.6 mph SSW7.4 kmh SSW 11.0 mph17.7 kmh 29.84 in1010.5 mb 0.00 in0.0 mm 0.00 in0.0 mm 0.00 in0.0 mm
07:10 PM 100.3°F37.9°C 57.0°F13.9°C 24% 4.4 mph SW7.1 kmh SW 9.0 mph14.5 kmh 29.84 in1010.5 mb 0.00 in0.0 mm 0.00 in0.0 mm 0.00 in0.0 mm
07:20 PM 100.0°F37.8°C 57.0°F13.9°C 24% 3.7 mph SW6.0 kmh SW 8.0 mph12.9 kmh 29.84 in1010.5 mb 0.00 in0.0 mm 0.00 in0.0 mm 0.00 in0.0 mm
07:30 PM 99.7°F37.6°C 58.0°F14.4°C 25% 3.5 mph SW5.6 kmh SW 7.0 mph11.3 kmh 29.84 in1010.5 mb 0.00 in0.0 mm 0.00 in0.0 mm 0.00 in0.0 mm
07:40 PM 99.2°F37.3°C 58.0°F14.4°C 25% 3.6 mph SSE5.8 kmh SSE 9.0 mph14.5 kmh 29.84 in1010.5 mb 0.00 in0.0 mm 0.00 in0.0 mm 0.00 in0.0 mm
07:50 PM 98.9°F37.2°C 58.0°F14.4°C 26% 3.9 mph S6.3 kmh S 8.0 mph12.9 kmh 29.84 in1010.5 mb 0.00 in0.0 mm 0.00 in0.0 mm 0.00 in0.0 mm
08:00 PM 98.4°F36.9°C 58.0°F14.4°C 26% 3.9 mph SE6.3 kmh SE 10.0 mph16.1 kmh 29.84 in1010.5 mb 0.00 in0.0 mm 0.00 in0.0 mm 0.00 in0.0 mm
08:10 PM 97.9°F36.6°C 58.0°F14.4°C 26% 3.4 mph SE5.5 kmh SE 8.0 mph12.9 kmh 29.84 in1010.5 mb 0.00 in0.0 mm 0.00 in0.0 mm 0.00 in0.0 mm
08:20 PM 97.8°F36.6°C 59.0°F15.0°C 27% 2.3 mph SSE3.7 kmh SSE 6.0 mph9.7 kmh 29.84 in1010.5 mb 0.00 in0.0 mm 0.00 in0.0 mm 0.00 in0.0 mm
08:30 PM 97.5°F36.4°C 58.0°F14.4°C 27% 2.2 mph S3.5 kmh S 6.0 mph9.7 kmh 29.84 in1010.5 mb 0.00 in0.0 mm 0.00 in0.0 mm 0.00 in0.0 mm
08:40 PM 97.5°F36.4°C 57.0°F13.9°C 26% 2.0 mph SSE3.2 kmh SSE 5.0 mph8.0 kmh 29.84 in1010.5 mb 0.00 in0.0 mm 0.00 in0.0 mm 0.00 in0.0 mm
08:50 PM 97.6°F36.4°C 57.0°F13.9°C 26% 2.3 mph SE3.7 kmh SE 9.0 mph14.5 kmh 29.84 in1010.5 mb 0.00 in0.0 mm 0.00 in0.0 mm 0.00 in0.0 mm
09:00 PM 97.6°F36.4°C 56.0°F13.3°C 25% 3.3 mph S5.3 kmh S 9.0 mph14.5 kmh 29.84 in1010.5 mb 0.00 in0.0 mm 0.00 in0.0 mm 0.00 in0.0 mm
09:10 PM 97.4°F36.3°C 56.0°F13.3°C 25% 5.0 mph S8.0 kmh S 8.0 mph12.9 kmh 29.84 in1010.5 mb 0.00 in0.0 mm 0.00 in0.0 mm 0.00 in0.0 mm
09:20 PM 94.8°F34.9°C 57.0°F13.9°C 28% 3.1 mph NE5.0 kmh NE 14.0 mph22.5 kmh 29.84 in1010.5 mb 0.00 in0.0 mm 0.00 in0.0 mm 0.00 in0.0 mm
09:30 PM 89.1°F31.7°C 62.0°F16.7°C 41% 4.2 mph NNE6.8 kmh NNE 12.0 mph19.3 kmh 29.84 in1010.5 mb 0.00 in0.0 mm 0.00 in0.0 mm 0.00 in0.0 mm
09:40 PM 86.6°F30.3°C 64.0°F17.8°C 47% 1.5 mph NNE2.4 kmh NNE 9.0 mph14.5 kmh 29.84 in1010.5 mb 0.00 in0.0 mm 0.00 in0.0 mm 0.00 in0.0 mm
09:50 PM 84.8°F29.3°C 65.0°F18.3°C 52% 2.7 mph SW4.3 kmh SW 10.0 mph16.1 kmh 29.84 in1010.5 mb 0.00 in0.0 mm 0.00 in0.0 mm 0.00 in0.0 mm
10:00 PM 82.8°F28.2°C 66.0°F18.9°C 57% 0.4 mph SE0.6 kmh SE 2.0 mph3.2 kmh 29.84 in1010.5 mb 0.00 in0.0 mm 0.00 in0.0 mm 0.00 in0.0 mm
10:10 PM 80.9°F27.2°C 65.0°F18.3°C 58% 1.8 mph NW2.9 kmh NW 5.0 mph8.0 kmh 29.84 in1010.5 mb 0.00 in0.0 mm 0.00 in0.0 mm 0.00 in0.0 mm
10:20 PM 81.9°F27.7°C 64.0°F17.8°C 55% 0.2 mph NW0.3 kmh NW 2.0 mph3.2 kmh 29.84 in1010.5 mb 0.00 in0.0 mm 0.00 in0.0 mm 0.00 in0.0 mm
10:30 PM 82.3°F27.9°C 65.0°F18.3°C 56% Calm Calm 2.0 mph3.2 kmh 29.84 in1010.5 mb 0.00 in0.0 mm 0.00 in0.0 mm 0.00 in0.0 mm
10:40 PM 81.6°F27.6°C 65.0°F18.3°C 58% 0.6 mph NNW1.0 kmh NNW 4.0 mph6.4 kmh 29.84 in1010.5 mb 0.00 in0.0 mm 0.00 in0.0 mm 0.00 in0.0 mm
10:50 PM 80.6°F27.0°C 64.0°F17.8°C 57% 4.6 mph NNE7.4 kmh NNE 15.0 mph24.1 kmh 29.84 in1010.5 mb 0.00 in0.0 mm 0.00 in0.0 mm 0.00 in0.0 mm
11:00 PM 78.8°F26.0°C 65.0°F18.3°C 62% 2.8 mph NE4.5 kmh NE 9.0 mph14.5 kmh 29.84 in1010.5 mb 0.00 in0.0 mm 0.00 in0.0 mm 0.00 in0.0 mm
11:10 PM 77.8°F25.4°C 65.0°F18.3°C 64% 0.6 mph NNE1.0 kmh NNE 4.0 mph6.4 kmh 29.84 in1010.5 mb 0.00 in0.0 mm 0.00 in0.0 mm 0.00 in0.0 mm
11:20 PM 78.6°F25.9°C 63.0°F17.2°C 60% 1.0 mph SE1.6 kmh SE 3.0 mph4.8 kmh 29.84 in1010.5 mb 0.00 in0.0 mm 0.00 in0.0 mm 0.00 in0.0 mm
11:30 PM 80.1°F26.7°C 64.0°F17.8°C 58% 2.1 mph SE3.4 kmh SE 6.0 mph9.7 kmh 29.84 in1010.5 mb 0.00 in0.0 mm 0.00 in0.0 mm 0.00 in0.0 mm
11:40 PM 80.7°F27.1°C 64.0°F17.8°C 57% 1.6 mph SSE2.6 kmh SSE 6.0 mph9.7 kmh 29.84 in1010.5 mb 0.00 in0.0 mm 0.00 in0.0 mm 0.00 in0.0 mm
11:50 PM 80.9°F27.2°C 64.0°F17.8°C 57% 0.6 mph SW1.0 kmh SW 3.0 mph4.8 kmh 29.84 in1010.5 mb 0.00 in0.0 mm 0.00 in0.0 mm 0.00 in0.0 mm